Time;durP1;ratioP1;P1;durP2;ratioP2;P2;SDS_P1;SDS_P2;PMS_P1;PMS_P2;Temp;Humidity;BMP_temperature;BMP_pressure;BME280_temperature;BME280_humidity;BME280_pressure;Samples;Min_cycle;Max_cycle;Signal;HPM_P1;HPM_P2
2022/09/25 00:01:51;;;;;;;0.50;0.40;;;13.50;99.90;;;;;;5072153;28;20439;-74
2022/09/25 00:04:19;;;;;;;0.50;0.40;;;13.50;99.90;;;;;;5071535;28;20551;-75
2022/09/25 00:06:47;;;;;;;0.50;0.40;;;13.50;99.90;;;;;;5072193;28;20505;-75
2022/09/25 00:09:18;;;;;;;0.50;0.40;;;13.50;99.90;;;;;;5072158;28;20439;-74
2022/09/25 00:11:46;;;;;;;0.50;0.40;;;13.50;99.90;;;;;;5072129;28;20468;-75
2022/09/25 00:14:12;;;;;;;0.50;0.40;;;13.50;99.90;;;;;;5072020;28;20817;-75
2022/09/25 00:16:39;;;;;;;0.50;0.40;;;13.50;99.90;;;;;;5071964;28;20474;-74
2022/09/25 00:21:54;;;;;;;2.40;1.57;;;13.50;99.90;;;;;;5071858;28;20408;-74
2022/09/25 00:24:22;;;;;;;0.50;0.40;;;13.50;99.90;;;;;;5070930;28;20464;-74
2022/09/25 00:26:49;;;;;;;0.50;0.40;;;13.50;99.90;;;;;;5071603;28;20450;-73
2022/09/25 00:29:19;;;;;;;0.50;0.40;;;13.40;99.90;;;;;;5071739;28;20441;-75
2022/09/25 00:31:46;;;;;;;0.50;0.40;;;13.40;99.90;;;;;;5071727;28;20921;-75
2022/09/25 00:34:14;;;;;;;0.50;0.40;;;13.40;99.90;;;;;;5071198;28;20886;-74
2022/09/25 00:36:41;;;;;;;0.50;0.40;;;13.30;99.90;;;;;;5071964;28;20464;-74
2022/09/25 00:39:08;;;;;;;0.50;0.40;;;13.30;99.90;;;;;;5071363;28;20522;-74
2022/09/25 00:41:35;;;;;;;0.50;0.40;;;13.30;99.90;;;;;;5071745;28;20467;-74
2022/09/25 00:44:03;;;;;;;0.50;0.40;;;13.30;99.90;;;;;;5071421;28;20458;-74
2022/09/25 00:46:34;;;;;;;0.50;0.40;;;13.30;99.90;;;;;;5071791;28;20438;-74
2022/09/25 00:49:04;;;;;;;0.50;0.40;;;13.30;99.90;;;;;;5071663;28;20439;-75
2022/09/25 00:51:39;;;;;;;0.50;0.40;;;13.20;99.90;;;;;;5071306;28;20447;-74
2022/09/25 00:54:09;;;;;;;2.83;0.50;;;13.10;99.90;;;;;;5071178;28;20494;-74
2022/09/25 00:56:39;;;;;;;0.50;0.40;;;13.20;99.90;;;;;;5071527;28;20813;-75
2022/09/25 00:59:10;;;;;;;0.60;0.40;;;13.20;99.90;;;;;;5071682;28;20476;-74
2022/09/25 01:01:37;;;;;;;0.50;0.40;;;13.10;99.90;;;;;;5071361;28;20432;-74
2022/09/25 01:04:04;;;;;;;0.50;0.40;;;13.00;99.90;;;;;;5070228;28;21174;-74
2022/09/25 01:06:33;;;;;;;0.50;0.40;;;13.00;99.90;;;;;;5071505;28;20458;-75
2022/09/25 01:09:00;;;;;;;0.50;0.40;;;13.10;99.90;;;;;;5071079;28;20435;-74
2022/09/25 01:11:27;;;;;;;0.50;0.40;;;13.10;99.90;;;;;;5071266;28;20483;-74
2022/09/25 01:13:56;;;;;;;0.80;0.77;;;13.10;99.90;;;;;;5070851;28;20466;-71
2022/09/25 01:16:32;;;;;;;0.50;0.40;;;13.10;99.90;;;;;;5071530;28;20451;-74
2022/09/25 01:19:19;;;;;;;0.50;0.40;;;13.10;99.90;;;;;;5070913;28;20476;-74
2022/09/25 01:21:52;;;;;;;0.50;0.40;;;13.10;99.90;;;;;;5071075;28;20514;-74
2022/09/25 01:24:41;;;;;;;0.50;0.30;;;13.10;99.90;;;;;;5070771;28;20478;-74
2022/09/25 01:27:42;;;;;;;0.50;0.40;;;13.10;99.90;;;;;;5071245;28;20438;-74
2022/09/25 01:30:15;;;;;;;0.50;0.40;;;13.10;99.90;;;;;;4988857;28;20562;-74
2022/09/25 01:32:52;;;;;;;0.50;0.40;;;13.10;99.90;;;;;;5057529;28;20535;-75
2022/09/25 01:35:31;;;;;;;0.50;0.40;;;13.10;99.90;;;;;;5071017;28;20436;-74
2022/09/25 01:38:01;;;;;;;0.53;0.43;;;13.00;99.90;;;;;;5075101;28;20482;-74
2022/09/25 01:40:32;;;;;;;0.50;0.40;;;13.00;99.90;;;;;;5074668;28;20439;-75
2022/09/25 01:43:08;;;;;;;0.50;0.40;;;13.00;99.90;;;;;;5075246;28;20447;-74
2022/09/25 01:45:42;;;;;;;0.50;0.40;;;12.90;99.90;;;;;;5074759;28;20431;-75
2022/09/25 01:48:12;;;;;;;0.50;0.40;;;13.00;99.90;;;;;;5075286;28;20429;-74
2022/09/25 01:50:42;;;;;;;0.50;0.40;;;12.90;99.90;;;;;;5074670;28;20447;-75
2022/09/25 01:53:13;;;;;;;0.50;0.40;;;13.00;99.90;;;;;;5074790;28;20495;-74
2022/09/25 01:55:45;;;;;;;0.50;0.40;;;12.90;99.90;;;;;;5074905;28;20518;-74
2022/09/25 01:58:17;;;;;;;0.50;0.40;;;12.90;99.90;;;;;;5074770;28;20553;-74
2022/09/25 02:00:50;;;;;;;2.50;0.60;;;12.90;99.90;;;;;;5074801;28;20905;-74
2022/09/25 02:03:24;;;;;;;0.50;0.40;;;12.80;99.90;;;;;;5074148;28;20463;-74
2022/09/25 02:05:54;;;;;;;0.50;0.40;;;12.80;99.90;;;;;;5074476;28;20457;-74
2022/09/25 02:08:24;;;;;;;0.50;0.40;;;12.80;99.90;;;;;;5074984;28;20428;-75
2022/09/25 02:10:55;;;;;;;0.50;0.40;;;12.80;99.90;;;;;;5074585;28;20428;-74
2022/09/25 02:13:26;;;;;;;0.50;0.40;;;12.70;99.90;;;;;;5074591;28;20791;-74
2022/09/25 02:15:57;;;;;;;0.50;0.40;;;12.70;99.90;;;;;;5074314;28;20428;-75
2022/09/25 02:21:28;;;;;;;0.50;0.40;;;12.70;99.90;;;;;;5037453;28;20416;-74
2022/09/25 02:24:04;;;;;;;0.50;0.40;;;12.70;99.90;;;;;;5073742;28;20468;-72
2022/09/25 02:26:34;;;;;;;0.50;0.40;;;12.70;99.90;;;;;;5074513;28;20797;-74
2022/09/25 02:29:01;;;;;;;1.13;0.93;;;12.70;99.90;;;;;;5074304;28;20801;-74
2022/09/25 02:31:34;;;;;;;0.50;0.40;;;12.70;99.90;;;;;;5074305;28;20197;-75
2022/09/25 02:34:02;;;;;;;0.50;0.40;;;12.60;99.90;;;;;;5073229;28;21003;-74
2022/09/25 02:36:29;;;;;;;0.93;0.80;;;12.60;99.90;;;;;;5073875;28;20811;-75
2022/09/25 02:38:56;;;;;;;0.50;0.40;;;12.60;99.90;;;;;;5073828;28;20488;-75
2022/09/25 02:41:33;;;;;;;0.60;0.50;;;12.60;99.90;;;;;;5074046;28;20965;-75
2022/09/25 02:44:12;;;;;;;0.50;0.40;;;12.60;99.90;;;;;;5073728;28;20472;-74
2022/09/25 02:46:51;;;;;;;0.77;0.77;;;12.60;99.90;;;;;;5073406;28;20444;-75
2022/09/25 02:49:29;;;;;;;0.50;0.40;;;12.60;99.90;;;;;;5073313;28;20890;-74
2022/09/25 02:52:06;;;;;;;0.50;0.40;;;12.60;99.90;;;;;;5073850;28;20447;-72
2022/09/25 02:54:38;;;;;;;0.50;0.40;;;12.40;99.90;;;;;;5073871;28;20778;-74
2022/09/25 02:57:12;;;;;;;0.50;0.40;;;12.40;99.90;;;;;;5072978;28;20439;-74
2022/09/25 02:59:45;;;;;;;0.50;0.40;;;12.40;99.90;;;;;;5073861;28;20471;-74
2022/09/25 03:02:15;;;;;;;0.50;0.40;;;12.40;99.90;;;;;;5073774;28;20445;-73
2022/09/25 03:04:44;;;;;;;0.50;0.40;;;12.30;99.90;;;;;;5072999;28;20630;-75
2022/09/25 03:07:11;;;;;;;0.50;0.40;;;12.40;99.90;;;;;;5073254;28;20801;-74
2022/09/25 03:09:41;;;;;;;0.50;0.40;;;12.40;99.90;;;;;;5073354;28;20442;-74
2022/09/25 03:12:07;;;;;;;0.50;0.40;;;12.40;99.90;;;;;;5073240;28;20190;-74
2022/09/25 03:14:34;;;;;;;0.50;0.40;;;12.40;99.90;;;;;;5073041;28;21019;-74
2022/09/25 03:17:05;;;;;;;0.50;0.40;;;12.40;99.90;;;;;;5073311;28;20446;-75
2022/09/25 03:19:34;;;;;;;0.50;0.40;;;12.30;99.90;;;;;;5072758;28;20458;-75
2022/09/25 03:22:01;;;;;;;1.93;0.63;;;12.30;99.90;;;;;;5073373;28;20917;-74
2022/09/25 03:24:28;;;;;;;0.50;0.40;;;12.30;99.90;;;;;;5072853;28;20558;-74
2022/09/25 03:26:55;;;;;;;0.87;0.87;;;12.30;99.90;;;;;;5072701;28;20444;-74
2022/09/25 03:29:22;;;;;;;0.50;0.40;;;12.30;99.90;;;;;;5073072;28;20429;-74
2022/09/25 03:31:49;;;;;;;0.50;0.40;;;12.20;99.90;;;;;;5072610;28;20877;-75
2022/09/25 03:34:18;;;;;;;0.60;0.50;;;12.10;99.90;;;;;;5072816;28;20538;-75
2022/09/25 03:36:46;;;;;;;2.13;0.97;;;12.10;99.90;;;;;;5072764;28;20190;-74
2022/09/25 03:39:16;;;;;;;0.50;0.40;;;12.00;99.90;;;;;;5073055;28;20472;-74
2022/09/25 03:41:43;;;;;;;0.50;0.40;;;12.00;99.90;;;;;;5072905;28;20444;-74
2022/09/25 03:44:11;;;;;;;0.50;0.40;;;11.90;99.90;;;;;;5072449;28;20308;-74
2022/09/25 03:46:38;;;;;;;0.50;0.40;;;11.90;99.90;;;;;;5072295;28;20440;-74
2022/09/25 03:49:05;;;;;;;0.50;0.40;;;11.90;99.90;;;;;;5072667;28;20441;-74
2022/09/25 03:51:32;;;;;;;0.50;0.40;;;11.90;99.90;;;;;;5072455;28;20228;-74
2022/09/25 03:54:01;;;;;;;0.50;0.40;;;11.80;99.90;;;;;;5072162;28;20210;-74
2022/09/25 03:56:29;;;;;;;0.60;0.60;;;11.80;99.90;;;;;;5072833;28;20587;-74
2022/09/25 03:58:57;;;;;;;0.50;0.40;;;11.80;99.90;;;;;;5071703;28;20218;-74
2022/09/25 04:01:28;;;;;;;0.50;0.40;;;11.80;99.90;;;;;;5072820;28;20190;-75
2022/09/25 04:03:55;;;;;;;0.50;0.40;;;11.80;99.90;;;;;;5071041;28;20213;-72
2022/09/25 04:06:23;;;;;;;0.50;0.40;;;11.70;99.90;;;;;;5072112;28;20447;-75
2022/09/25 04:08:51;;;;;;;0.50;0.40;;;11.70;99.90;;;;;;5072448;28;20206;-74
2022/09/25 04:11:23;;;;;;;0.50;0.40;;;11.80;99.90;;;;;;5072316;28;20229;-75
2022/09/25 04:13:49;;;;;;;0.50;0.40;;;11.80;99.90;;;;;;5071514;28;20231;-74
2022/09/25 04:16:19;;;;;;;0.50;0.40;;;11.70;99.90;;;;;;5071600;28;20324;-74
2022/09/25 04:18:46;;;;;;;0.50;0.40;;;11.70;99.90;;;;;;5071929;28;20920;-74
2022/09/25 04:21:15;;;;;;;0.50;0.40;;;11.70;99.90;;;;;;5072033;28;20675;-74
2022/09/25 04:24:46;;;;;;;0.50;0.40;;;11.70;99.90;;;;;;5071640;28;20223;-74
2022/09/25 04:26:30;;;;;;;0.50;0.40;;;11.70;99.90;;;;;;5071664;28;20661;-74
2022/09/25 04:28:57;;;;;;;0.50;0.40;;;11.70;99.90;;;;;;5071874;28;20196;-74
2022/09/25 04:31:24;;;;;;;0.50;0.40;;;11.60;99.90;;;;;;5071992;28;20811;-74
2022/09/25 04:33:50;;;;;;;0.50;0.40;;;11.60;99.90;;;;;;5071589;28;20212;-73
2022/09/25 04:36:18;;;;;;;0.50;0.40;;;11.60;99.90;;;;;;5071719;28;20685;-75
2022/09/25 04:38:45;;;;;;;0.50;0.40;;;11.60;99.90;;;;;;5071378;28;20207;-74
2022/09/25 04:41:12;;;;;;;2.58;1.58;;;11.60;99.90;;;;;;5071131;28;20201;-74
2022/09/25 04:43:40;;;;;;;0.50;0.40;;;11.60;99.90;;;;;;5071724;28;20213;-74
2022/09/25 04:46:09;;;;;;;0.50;0.40;;;11.60;99.90;;;;;;5071577;28;20833;-74
2022/09/25 04:48:36;;;;;;;0.50;0.40;;;11.60;99.90;;;;;;5071252;28;20440;-74
2022/09/25 04:51:03;;;;;;;0.50;0.40;;;11.60;99.90;;;;;;5071754;28;20194;-74
2022/09/25 04:53:31;;;;;;;0.50;0.40;;;11.60;99.90;;;;;;5071102;28;20312;-74
2022/09/25 04:56:01;;;;;;;3.42;2.60;;;11.60;99.90;;;;;;5071316;28;20194;-74
2022/09/25 04:58:27;;;;;;;0.50;0.40;;;11.50;99.90;;;;;;5071611;28;20197;-75
2022/09/25 05:00:56;;;;;;;0.50;0.40;;;11.40;99.90;;;;;;5071676;28;20629;-75
2022/09/25 05:03:22;;;;;;;0.50;0.40;;;11.30;99.90;;;;;;5071180;28;20832;-74
2022/09/25 05:05:49;;;;;;;0.50;0.40;;;11.30;99.90;;;;;;5071124;28;20193;-71
2022/09/25 05:08:16;;;;;;;0.50;0.40;;;11.30;99.90;;;;;;5070807;28;20732;-74
2022/09/25 05:10:43;;;;;;;0.50;0.40;;;11.20;99.90;;;;;;5071468;28;20228;-74
2022/09/25 05:13:11;;;;;;;0.50;0.40;;;11.20;99.90;;;;;;5071369;28;20297;-74
2022/09/25 05:15:37;;;;;;;0.50;0.40;;;11.20;99.90;;;;;;5071266;28;20327;-74
2022/09/25 05:18:12;;;;;;;0.50;0.40;;;11.10;99.90;;;;;;5072234;28;20195;-75
2022/09/25 05:20:39;;;;;;;0.50;0.40;;;11.00;99.90;;;;;;5071100;28;20574;-76
2022/09/25 05:23:06;;;;;;;0.50;0.40;;;11.00;99.90;;;;;;5070968;28;20242;-74
2022/09/25 05:25:33;;;;;;;0.50;0.40;;;11.00;99.90;;;;;;5070888;28;20207;-76
2022/09/25 05:28:01;;;;;;;0.50;0.40;;;10.90;99.90;;;;;;5071486;28;20645;-76
2022/09/25 05:30:30;;;;;;;0.60;0.60;;;10.90;99.90;;;;;;5071096;28;20186;-77
2022/09/25 05:32:58;;;;;;;0.50;0.40;;;10.90;99.90;;;;;;5070588;28;20567;-75
2022/09/25 05:35:27;;;;;;;0.50;0.40;;;10.90;99.90;;;;;;5071160;28;20193;-76
2022/09/25 05:37:55;;;;;;;0.50;0.40;;;10.90;99.90;;;;;;5071119;28;20671;-76
2022/09/25 05:40:22;;;;;;;0.50;0.40;;;10.90;99.90;;;;;;5070990;28;20312;-75
2022/09/25 05:42:50;;;;;;;0.50;0.40;;;10.90;99.90;;;;;;5070745;28;20247;-76
2022/09/25 05:45:19;;;;;;;0.50;0.40;;;10.80;99.90;;;;;;5070567;28;20193;-76
2022/09/25 05:47:45;;;;;;;0.50;0.40;;;10.90;99.90;;;;;;5070863;28;20197;-75
2022/09/25 05:50:14;;;;;;;0.50;0.40;;;10.90;99.90;;;;;;5071328;28;20190;-76
2022/09/25 05:52:43;;;;;;;0.50;0.40;;;10.90;99.90;;;;;;5070859;28;20197;-77
2022/09/25 05:55:10;;;;;;;0.50;0.40;;;11.00;99.90;;;;;;5070386;28;20196;-76
2022/09/25 05:57:38;;;;;;;0.60;0.60;;;11.10;99.90;;;;;;5070677;28;20196;-77
2022/09/25 06:00:07;;;;;;;0.50;0.40;;;11.10;99.90;;;;;;5070485;28;20217;-76
2022/09/25 06:02:34;;;;;;;0.50;0.40;;;11.10;99.90;;;;;;5071413;28;20212;-76
2022/09/25 06:05:01;;;;;;;0.50;0.40;;;11.00;99.90;;;;;;5070179;28;20714;-75
2022/09/25 06:07:28;;;;;;;0.50;0.40;;;11.00;99.90;;;;;;5070380;28;20197;-76
2022/09/25 06:09:56;;;;;;;0.50;0.40;;;11.00;99.90;;;;;;5070662;28;20541;-72
2022/09/25 06:12:23;;;;;;;0.50;0.40;;;11.00;99.90;;;;;;5071058;28;20285;-76
2022/09/25 06:14:51;;;;;;;0.50;0.40;;;11.00;99.90;;;;;;5070046;28;20217;-76
2022/09/25 06:17:18;;;;;;;0.50;0.40;;;11.00;99.90;;;;;;5070673;28;20281;-76
2022/09/25 06:19:45;;;;;;;0.50;0.40;;;11.00;99.90;;;;;;5070214;28;20308;-76
2022/09/25 06:22:11;;;;;;;0.50;0.40;;;11.00;99.90;;;;;;5071846;28;20204;-76
2022/09/25 06:24:38;;;;;;;0.50;0.40;;;11.00;99.90;;;;;;5073518;28;20228;-76
2022/09/25 06:27:08;;;;;;;0.50;0.40;;;11.10;99.90;;;;;;5074105;28;20627;-78
2022/09/25 06:29:35;;;;;;;0.50;0.40;;;11.10;99.90;;;;;;5074058;28;20214;-79
2022/09/25 06:32:02;;;;;;;0.50;0.40;;;11.20;99.90;;;;;;5074375;28;20567;-78
2022/09/25 06:34:29;;;;;;;0.50;0.40;;;11.20;99.90;;;;;;5074567;28;20597;-79
2022/09/25 06:36:56;;;;;;;0.50;0.40;;;11.90;99.90;;;;;;5075276;28;20190;-79
2022/09/25 06:39:23;;;;;;;0.50;0.40;;;12.90;99.90;;;;;;5075613;28;20953;-77
2022/09/25 06:41:52;;;;;;;0.50;0.40;;;13.80;99.90;;;;;;5074347;28;20203;-75
2022/09/25 06:44:21;;;;;;;0.50;0.40;;;14.10;99.90;;;;;;5073468;28;20459;-77
2022/09/25 06:46:49;;;;;;;0.50;0.40;;;14.30;99.90;;;;;;5073820;28;20447;-77
2022/09/25 06:49:16;;;;;;;0.50;0.40;;;14.40;99.90;;;;;;5073665;28;20444;-77
2022/09/25 06:51:43;;;;;;;0.50;0.40;;;14.20;99.90;;;;;;5073979;28;20440;-77
2022/09/25 06:54:10;;;;;;;0.50;0.40;;;14.30;99.90;;;;;;5073250;28;20473;-77
2022/09/25 06:56:36;;;;;;;0.50;0.40;;;14.30;99.90;;;;;;5073882;28;20444;-76
2022/09/25 06:59:03;;;;;;;0.50;0.40;;;14.30;99.90;;;;;;5073554;28;20806;-77
2022/09/25 07:01:31;;;;;;;0.50;0.40;;;14.40;99.90;;;;;;5073728;28;20920;-75
2022/09/25 07:03:57;;;;;;;0.50;0.40;;;14.60;99.90;;;;;;5072751;28;20547;-77
2022/09/25 07:06:30;;;;;;;0.53;0.40;;;14.70;99.90;;;;;;5073594;28;20538;-76
2022/09/25 07:08:57;;;;;;;0.50;0.40;;;14.70;99.90;;;;;;5073690;28;20182;-76
2022/09/25 07:11:26;;;;;;;0.50;0.40;;;14.80;99.90;;;;;;5072996;28;20446;-76
2022/09/25 07:13:54;;;;;;;0.60;0.50;;;14.80;99.90;;;;;;5072507;28;20937;-73
2022/09/25 07:16:23;;;;;;;0.50;0.40;;;14.80;99.90;;;;;;5073278;28;20447;-75
2022/09/25 07:18:53;;;;;;;0.50;0.47;;;14.70;99.90;;;;;;5073485;28;20428;-76
2022/09/25 07:21:22;;;;;;;0.50;0.40;;;14.70;99.90;;;;;;5072997;28;20471;-76
2022/09/25 07:23:50;;;;;;;0.50;0.40;;;14.70;99.90;;;;;;5072666;28;20500;-74
2022/09/25 07:26:21;;;;;;;0.50;0.40;;;14.80;99.90;;;;;;5072698;28;20436;-76
2022/09/25 07:28:50;;;;;;;0.50;0.40;;;14.80;99.90;;;;;;5073350;28;20435;-76
2022/09/25 07:31:19;;;;;;;0.50;0.40;;;15.00;99.90;;;;;;5072999;28;20999;-76
2022/09/25 07:33:46;;;;;;;0.50;0.40;;;14.80;99.90;;;;;;5071611;28;20539;-74
2022/09/25 07:36:16;;;;;;;0.50;0.40;;;14.90;99.90;;;;;;5072611;28;20440;-76
2022/09/25 07:38:44;;;;;;;0.50;0.40;;;15.20;99.90;;;;;;5072674;28;20820;-76
2022/09/25 07:41:12;;;;;;;0.50;0.40;;;15.80;99.90;;;;;;5072784;28;20510;-75
2022/09/25 07:43:41;;;;;;;0.63;0.57;;;16.30;99.90;;;;;;5072752;28;20460;-76
2022/09/25 07:46:07;;;;;;;0.50;0.40;;;17.70;99.90;;;;;;5072568;28;20524;-77
2022/09/25 07:48:34;;;;;;;0.50;0.30;;;19.20;99.90;;;;;;5072780;28;20450;-76
2022/09/25 07:51:01;;;;;;;0.50;0.40;;;20.80;99.90;;;;;;5072446;28;20519;-77
2022/09/25 07:53:30;;;;;;;0.50;0.30;;;22.80;99.90;;;;;;5072422;28;20535;-77
2022/09/25 07:55:58;;;;;;;0.50;0.30;;;24.40;99.90;;;;;;5071939;28;20449;-77
2022/09/25 07:58:25;;;;;;;0.50;0.30;;;25.60;95.40;;;;;;5072589;28;20436;-77
2022/09/25 08:00:53;;;;;;;0.50;0.40;;;27.00;89.70;;;;;;5072157;28;20984;-77
2022/09/25 08:03:20;;;;;;;0.50;0.40;;;28.10;79.00;;;;;;5071871;28;20517;-76
2022/09/25 08:05:47;;;;;;;0.50;0.40;;;28.20;71.90;;;;;;5072077;28;20467;-77
2022/09/25 08:08:14;;;;;;;0.50;0.40;;;28.80;70.70;;;;;;5071837;28;20440;-77
2022/09/25 08:10:42;;;;;;;0.50;0.40;;;28.30;68.70;;;;;;5072273;28;20448;-77
2022/09/25 08:13:08;;;;;;;0.50;0.30;;;29.00;68.40;;;;;;5072336;28;20486;-77
2022/09/25 08:15:35;;;;;;;0.50;0.30;;;29.40;68.20;;;;;;5071763;28;20442;-77
2022/09/25 08:18:02;;;;;;;0.50;0.30;;;29.80;64.70;;;;;;5071829;28;20439;-77
2022/09/25 08:20:29;;;;;;;0.50;0.30;;;30.60;63.20;;;;;;5071803;28;20470;-77
2022/09/25 08:22:56;;;;;;;0.50;0.30;;;31.20;60.90;;;;;;5071963;28;20535;-77
2022/09/25 08:25:23;;;;;;;0.50;0.30;;;31.60;58.10;;;;;;5071758;28;20442;-76
2022/09/25 08:27:51;;;;;;;0.50;0.30;;;31.80;57.00;;;;;;5071736;28;20440;-75
2022/09/25 08:30:18;;;;;;;0.50;0.30;;;32.10;56.80;;;;;;5071427;28;20450;-77
2022/09/25 08:32:45;;;;;;;0.50;0.30;;;32.50;55.60;;;;;;5071702;28;20440;-78
2022/09/25 08:35:12;;;;;;;0.50;0.30;;;33.30;55.30;;;;;;5071701;28;20438;-78
2022/09/25 08:37:43;;;;;;;0.50;0.30;;;32.90;55.60;;;;;;5071414;28;20448;-77
2022/09/25 08:40:18;;;;;;;0.50;0.30;;;33.20;54.80;;;;;;5071485;28;20467;-77
2022/09/25 08:42:47;;;;;;;0.50;0.30;;;33.60;53.40;;;;;;5071530;28;20420;-77
2022/09/25 08:51:05;;;;;;;0.50;0.30;;;35.10;51.70;;;;;;5071801;28;20889;-77
2022/09/25 08:53:34;;;;;;;0.50;0.30;;;34.60;52.10;;;;;;5071189;28;20452;-77
2022/09/25 08:56:16;;;;;;;0.50;0.30;;;34.90;52.00;;;;;;5070720;28;20440;-77
2022/09/25 08:58:48;;;;;;;0.50;0.30;;;32.70;49.30;;;;;;5071767;28;20580;-77
2022/09/25 09:01:19;;;;;;;0.50;0.30;;;32.60;54.10;;;;;;5071383;28;20468;-76
2022/09/25 09:03:52;;;;;;;10.43;7.20;;;32.50;51.90;;;;;;5070746;28;20545;-75
2022/09/25 09:06:19;;;;;;;0.50;0.30;;;32.10;51.10;;;;;;5071123;28;20432;-77
2022/09/25 09:08:50;;;;;;;0.50;0.30;;;32.40;53.20;;;;;;5071268;28;21005;-77
2022/09/25 09:11:22;;;;;;;0.50;0.50;;;32.70;53.00;;;;;;5071471;28;20427;-77
2022/09/25 09:13:52;;;;;;;0.50;0.30;;;33.10;52.50;;;;;;5071316;28;20490;-73
2022/09/25 09:16:28;;;;;;;0.50;0.30;;;33.50;51.60;;;;;;5071190;28;20440;-77
2022/09/25 09:18:56;;;;;;;0.50;0.30;;;33.70;50.90;;;;;;5070855;28;20430;-73
2022/09/25 09:21:32;;;;;;;0.50;0.30;;;33.90;50.10;;;;;;5071166;28;21023;-77
2022/09/25 09:24:06;;;;;;;2.50;0.50;;;33.20;49.60;;;;;;5070767;28;20478;-77
2022/09/25 09:26:42;;;;;;;0.50;0.30;;;34.00;49.80;;;;;;5071327;28;20425;-77
2022/09/25 09:29:22;;;;;;;0.50;0.30;;;34.00;48.50;;;;;;5070690;28;20481;-78
2022/09/25 09:31:59;;;;;;;0.50;0.30;;;33.60;48.60;;;;;;5071218;28;20413;-77
2022/09/25 09:34:39;;;;;;;0.50;0.30;;;33.70;48.20;;;;;;5071072;28;20456;-77
2022/09/25 09:37:14;;;;;;;0.50;0.30;;;34.30;48.20;;;;;;5071463;28;20444;-77
2022/09/25 09:39:47;;;;;;;0.40;0.30;;;34.00;48.50;;;;;;5070768;28;20454;-77
2022/09/25 09:42:24;;;;;;;0.50;0.30;;;33.90;49.10;;;;;;5070832;28;21008;-77
2022/09/25 09:44:59;;;;;;;0.50;0.30;;;33.50;48.20;;;;;;5070233;28;20467;-74
2022/09/25 09:47:43;;;;;;;0.50;0.30;;;33.40;48.20;;;;;;5071357;28;20469;-76
2022/09/25 09:50:31;;;;;;;0.50;0.30;;;33.10;47.80;;;;;;5071194;28;20421;-77
2022/09/25 09:53:03;;;;;;;0.50;0.30;;;32.10;49.90;;;;;;5071831;28;20417;-76
2022/09/25 09:55:39;;;;;;;0.50;0.30;;;32.20;49.20;;;;;;5070183;28;20536;-76
2022/09/25 09:58:12;;;;;;;0.50;0.40;;;32.50;50.80;;;;;;5072976;28;20860;-77
2022/09/25 10:00:39;;;;;;;0.50;0.30;;;32.90;48.40;;;;;;5074761;28;20906;-76
2022/09/25 10:03:14;;;;;;;0.50;0.30;;;32.50;50.30;;;;;;5074791;28;20861;-77
2022/09/25 10:05:44;;;;;;;1.27;1.17;;;32.80;49.10;;;;;;5073758;28;20420;-76
2022/09/25 10:08:11;;;;;;;0.50;0.30;;;32.30;47.70;;;;;;5074980;28;20431;-75
2022/09/25 10:10:40;;;;;;;0.50;0.30;;;30.80;50.50;;;;;;5074298;28;20454;-76
2022/09/25 10:13:15;;;;;;;0.50;0.30;;;29.50;52.40;;;;;;5074570;28;20558;-77
2022/09/25 10:15:48;;;;;;;0.50;0.30;;;27.80;54.50;;;;;;5073959;28;20440;-74
2022/09/25 10:18:17;;;;;;;0.50;0.30;;;26.10;55.30;;;;;;5074164;28;20436;-75
2022/09/25 10:20:50;;;;;;;0.50;0.30;;;25.00;57.70;;;;;;5074149;28;20470;-77
2022/09/25 10:23:29;;;;;;;0.50;0.33;;;23.80;58.90;;;;;;5079659;28;20464;-79
2022/09/25 10:25:56;;;;;;;0.50;0.30;;;23.50;63.10;;;;;;5074403;28;21029;-75
2022/09/25 10:28:29;;;;;;;0.70;0.60;;;24.10;60.70;;;;;;5074059;28;20482;-77
2022/09/25 10:30:57;;;;;;;0.50;0.30;;;24.10;62.30;;;;;;5073844;28;20446;-77
2022/09/25 10:33:28;;;;;;;0.50;0.30;;;24.50;62.90;;;;;;5073876;28;20510;-77
2022/09/25 10:35:55;;;;;;;0.50;0.30;;;25.70;61.10;;;;;;5074187;28;20785;-76
2022/09/25 10:38:31;;;;;;;0.50;0.40;;;26.90;57.60;;;;;;5073873;28;20447;-76
2022/09/25 10:41:02;;;;;;;0.50;0.30;;;26.90;55.60;;;;;;5074001;28;20467;-73
2022/09/25 10:43:29;;;;;;;0.50;0.30;;;27.00;56.70;;;;;;5073897;28;20463;-77
2022/09/25 10:50:09;;;;;;;0.50;0.30;;;26.20;56.60;;;;;;5073537;28;20440;-77
2022/09/25 10:52:05;;;;;;;0.50;0.30;;;26.20;59.50;;;;;;5073520;28;20440;-73
2022/09/25 10:54:32;;;;;;;0.50;0.30;;;27.20;57.00;;;;;;5073407;28;20451;-76
2022/09/25 10:56:59;;;;;;;0.50;0.30;;;27.40;56.90;;;;;;5073138;28;20440;-77
2022/09/25 10:59:27;;;;;;;0.50;0.30;;;28.60;54.50;;;;;;5073652;28;20436;-77
2022/09/25 11:01:55;;;;;;;0.50;0.30;;;29.40;54.40;;;;;;5073275;28;20482;-77
2022/09/25 11:04:26;;;;;;;0.50;0.30;;;30.60;53.90;;;;;;5073141;28;20822;-74
2022/09/25 11:06:57;;;;;;;0.50;0.33;;;30.80;51.30;;;;;;5073373;28;20444;-73
2022/09/25 11:09:26;;;;;;;0.50;0.30;;;30.80;49.60;;;;;;5072940;28;20436;-77
2022/09/25 11:12:03;;;;;;;0.50;0.30;;;29.80;50.20;;;;;;5073167;28;20440;-76
2022/09/25 11:14:33;;;;;;;0.50;0.30;;;27.80;51.80;;;;;;5073186;28;20467;-77
2022/09/25 11:17:04;;;;;;;0.50;0.30;;;26.50;54.50;;;;;;5074638;28;20467;-76
2022/09/25 11:19:34;;;;;;;0.50;0.30;;;26.00;56.90;;;;;;5073286;28;20913;-77
2022/09/25 11:22:11;;;;;;;0.50;0.30;;;26.50;58.20;;;;;;5072968;28;20468;-72
2022/09/25 11:25:06;;;;;;;0.50;0.30;;;27.70;55.80;;;;;;5072629;28;20555;-77
2022/09/25 11:27:38;;;;;;;0.50;0.33;;;27.50;54.50;;;;;;5070067;28;20450;-77
2022/09/25 11:30:09;;;;;;;0.50;0.30;;;26.50;53.90;;;;;;5072868;28;20856;-76
2022/09/25 11:32:44;;;;;;;0.50;0.30;;;25.30;55.60;;;;;;5072869;28;21005;-76
2022/09/25 11:35:41;;;;;;;0.50;0.30;;;25.80;56.40;;;;;;5072812;28;20487;-77
2022/09/25 11:38:17;;;;;;;0.50;0.40;;;26.70;57.10;;;;;;5072721;28;20447;-76
2022/09/25 11:41:13;;;;;;;0.50;0.30;;;26.80;56.10;;;;;;5072912;28;20431;-76
2022/09/25 11:43:51;;;;;;;0.50;0.30;;;25.90;57.40;;;;;;5072532;28;20977;-76
2022/09/25 11:46:25;;;;;;;0.50;0.30;;;26.20;58.50;;;;;;5072878;28;20436;-76
2022/09/25 11:49:00;;;;;;;2.30;2.20;;;26.40;58.10;;;;;;5072476;28;20878;-76
2022/09/25 11:51:54;;;;;;;0.50;0.30;;;27.00;56.40;;;;;;5073009;28;20435;-76
2022/09/25 11:54:34;;;;;;;0.50;0.40;;;27.60;55.80;;;;;;5072212;28;20836;-76
2022/09/25 11:57:06;;;;;;;0.50;0.30;;;28.20;54.30;;;;;;5073166;28;20452;-76
2022/09/25 11:59:45;;;;;;;0.50;0.30;;;27.80;52.30;;;;;;5072396;28;20964;-76
2022/09/25 12:02:21;;;;;;;0.50;0.30;;;27.50;52.40;;;;;;5072655;28;20466;-76
2022/09/25 12:05:13;;;;;;;0.50;0.30;;;27.80;52.10;;;;;;5071217;28;20464;-76
2022/09/25 12:07:55;;;;;;;0.50;0.30;;;27.70;51.70;;;;;;5069299;28;20483;-76
2022/09/25 12:10:35;;;;;;;0.50;0.40;;;26.80;51.30;;;;;;5072468;28;20519;-76
2022/09/25 12:13:08;;;;;;;0.50;0.30;;;25.50;53.60;;;;;;5072062;28;20611;-74
2022/09/25 12:15:48;;;;;;;0.50;0.30;;;25.00;57.20;;;;;;5071475;28;20960;-76
2022/09/25 12:18:27;;;;;;;0.60;0.50;;;25.60;57.60;;;;;;5072134;28;20424;-76
2022/09/25 12:21:01;;;;;;;0.50;0.30;;;26.70;56.30;;;;;;5071212;28;20443;-76
2022/09/25 12:23:32;;;;;;;0.50;0.30;;;27.90;54.10;;;;;;5071672;28;20550;-76
2022/09/25 12:26:19;;;;;;;0.50;0.30;;;28.70;52.10;;;;;;5071358;28;20535;-76
2022/09/25 12:28:56;;;;;;;0.50;0.30;;;29.10;50.50;;;;;;5072271;28;20527;-76
2022/09/25 12:31:33;;;;;;;0.50;0.30;;;29.10;52.70;;;;;;5071795;28;20440;-76
2022/09/25 12:34:10;;;;;;;0.50;0.30;;;30.20;51.50;;;;;;5071573;28;20542;-77
2022/09/25 12:36:42;;;;;;;0.50;0.30;;;31.40;49.00;;;;;;5071861;28;20436;-76
2022/09/25 12:39:30;;;;;;;0.50;0.30;;;31.40;47.60;;;;;;5071789;28;20423;-76
2022/09/25 12:42:06;;;;;;;0.50;0.30;;;30.60;47.80;;;;;;5071691;28;20463;-76
2022/09/25 12:44:49;;;;;;;0.50;0.30;;;29.30;50.70;;;;;;5071482;28;20553;-76
2022/09/25 12:47:24;;;;;;;0.50;0.30;;;30.40;49.80;;;;;;5071620;28;20428;-76
2022/09/25 12:49:57;;;;;;;0.50;0.30;;;31.20;49.80;;;;;;5071700;28;20519;-76
2022/09/25 12:52:28;;;;;;;0.50;0.30;;;30.60;47.80;;;;;;5071624;28;20439;-76
2022/09/25 12:55:02;;;;;;;0.50;0.30;;;30.90;48.80;;;;;;5070867;28;20547;-78
2022/09/25 12:57:37;;;;;;;0.50;0.30;;;31.50;47.90;;;;;;5071348;28;20638;-76
2022/09/25 13:00:17;;;;;;;0.60;0.50;;;30.30;47.50;;;;;;5071387;28;20439;-75
2022/09/25 13:02:50;;;;;;;0.50;0.30;;;28.60;47.30;;;;;;5071841;28;20822;-75
2022/09/25 13:05:22;;;;;;;0.50;0.30;;;27.70;50.60;;;;;;5070315;28;20466;-76
2022/09/25 13:07:54;;;;;;;0.50;0.30;;;26.40;50.50;;;;;;5070817;28;20447;-76
2022/09/25 13:10:27;;;;;;;0.50;0.30;;;25.20;52.60;;;;;;5071606;28;20423;-76
2022/09/25 13:12:57;;;;;;;0.50;0.30;;;24.60;54.10;;;;;;5071413;28;20456;-78
2022/09/25 13:15:28;;;;;;;0.50;0.30;;;25.00;55.80;;;;;;5070939;28;20416;-76
2022/09/25 13:17:57;;;;;;;0.50;0.30;;;25.60;54.90;;;;;;5071010;28;20451;-72
2022/09/25 13:20:50;;;;;;;0.50;0.30;;;26.00;52.90;;;;;;5071225;28;20807;-76
2022/09/25 13:23:28;;;;;;;0.50;0.30;;;27.00;54.50;;;;;;5071057;28;20483;-76